sensor_id;sensor_type;location;lat;lon;timestamp;pressure;altitude;pressure_sealevel;temperature;humidity
8703;BME280;9002;42.708;23.186;2023-08-06T00:00:22;93892.50;;;20.73;91.35
8703;BME280;9002;42.708;23.186;2023-08-06T00:02:49;93849.03;;;20.86;91.21
8703;BME280;9002;42.708;23.186;2023-08-06T00:05:16;93863.84;;;21.21;90.59
8703;BME280;9002;42.708;23.186;2023-08-06T00:07:46;93915.78;;;20.95;89.43
8703;BME280;9002;42.708;23.186;2023-08-06T00:10:13;93908.34;;;21.12;88.56
8703;BME280;9002;42.708;23.186;2023-08-06T00:12:40;93901.28;;;21.52;89.33
8703;BME280;9002;42.708;23.186;2023-08-06T00:15:08;93911.63;;;21.77;90.71
8703;BME280;9002;42.708;23.186;2023-08-06T00:17:34;93901.03;;;21.87;84.23
8703;BME280;9002;42.708;23.186;2023-08-06T00:20:02;93885.59;;;22.04;86.94
8703;BME280;9002;42.708;23.186;2023-08-06T00:22:30;93887.97;;;21.72;83.53
8703;BME280;9002;42.708;23.186;2023-08-06T00:24:57;93883.56;;;21.62;83.82
8703;BME280;9002;42.708;23.186;2023-08-06T00:27:25;93905.25;;;21.83;84.55
8703;BME280;9002;42.708;23.186;2023-08-06T00:29:52;93890.69;;;21.62;84.83
8703;BME280;9002;42.708;23.186;2023-08-06T00:32:20;93861.88;;;21.41;82.32
8703;BME280;9002;42.708;23.186;2023-08-06T00:34:47;93824.47;;;21.45;87.18
8703;BME280;9002;42.708;23.186;2023-08-06T00:37:15;93824.91;;;21.57;86.57
8703;BME280;9002;42.708;23.186;2023-08-06T00:39:42;93865.47;;;21.85;87.04
8703;BME280;9002;42.708;23.186;2023-08-06T00:42:09;93845.72;;;21.53;83.68
8703;BME280;9002;42.708;23.186;2023-08-06T00:44:37;93867.28;;;21.89;85.00
8703;BME280;9002;42.708;23.186;2023-08-06T00:47:05;93849.22;;;21.78;86.14
8703;BME280;9002;42.708;23.186;2023-08-06T00:49:33;93841.09;;;21.74;83.29
8703;BME280;9002;42.708;23.186;2023-08-06T00:52:00;93866.38;;;22.04;81.59
8703;BME280;9002;42.708;23.186;2023-08-06T00:54:27;93866.31;;;21.80;82.75
8703;BME280;9002;42.708;23.186;2023-08-06T00:56:54;93847.91;;;21.75;80.54
8703;BME280;9002;42.708;23.186;2023-08-06T00:59:23;93799.13;;;21.25;83.18
8703;BME280;9002;42.708;23.186;2023-08-06T01:01:51;93823.81;;;21.63;80.34
8703;BME280;9002;42.708;23.186;2023-08-06T01:04:18;93844.38;;;21.56;80.22
8703;BME280;9002;42.708;23.186;2023-08-06T01:06:48;93825.44;;;21.25;80.53
8703;BME280;9002;42.708;23.186;2023-08-06T01:09:28;93814.19;;;21.48;82.65
8703;BME280;9002;42.708;23.186;2023-08-06T01:12:04;93812.06;;;21.50;81.82
8703;BME280;9002;42.708;23.186;2023-08-06T01:14:40;93786.63;;;21.01;81.28
8703;BME280;9002;42.708;23.186;2023-08-06T01:17:14;93776.84;;;20.73;82.94
8703;BME280;9002;42.708;23.186;2023-08-06T01:19:41;93824.47;;;21.05;83.55
8703;BME280;9002;42.708;23.186;2023-08-06T01:22:09;93824.44;;;21.10;84.99
8703;BME280;9002;42.708;23.186;2023-08-06T01:24:36;93818.66;;;21.48;83.27
8703;BME280;9002;42.708;23.186;2023-08-06T01:27:07;93827.25;;;21.58;83.69
8703;BME280;9002;42.708;23.186;2023-08-06T01:29:41;93814.56;;;21.65;82.36
8703;BME280;9002;42.708;23.186;2023-08-06T01:32:11;93805.44;;;21.19;83.42
8703;BME280;9002;42.708;23.186;2023-08-06T01:34:40;93785.31;;;20.99;83.95
8703;BME280;9002;42.708;23.186;2023-08-06T01:37:09;93809.78;;;21.38;84.89
8703;BME280;9002;42.708;23.186;2023-08-06T01:39:39;93807.09;;;21.43;84.42
8703;BME280;9002;42.708;23.186;2023-08-06T01:42:08;93808.59;;;21.21;85.48
8703;BME280;9002;42.708;23.186;2023-08-06T01:44:35;93815.22;;;21.13;84.17
8703;BME280;9002;42.708;23.186;2023-08-06T01:47:02;93766.13;;;20.98;85.83
8703;BME280;9002;42.708;23.186;2023-08-06T01:49:29;93799.91;;;21.25;84.48
8703;BME280;9002;42.708;23.186;2023-08-06T01:51:56;93803.09;;;21.17;85.09
8703;BME280;9002;42.708;23.186;2023-08-06T01:54:24;93795.34;;;20.97;85.98
8703;BME280;9002;42.708;23.186;2023-08-06T01:56:51;93803.41;;;21.10;84.86
8703;BME280;9002;42.708;23.186;2023-08-06T01:59:18;93802.63;;;21.10;84.50
8703;BME280;9002;42.708;23.186;2023-08-06T02:01:45;93791.97;;;20.86;85.36
8703;BME280;9002;42.708;23.186;2023-08-06T02:04:12;93794.53;;;20.96;85.43
8703;BME280;9002;42.708;23.186;2023-08-06T02:06:38;93791.66;;;20.98;85.67
8703;BME280;9002;42.708;23.186;2023-08-06T02:09:05;93792.19;;;20.95;85.46
8703;BME280;9002;42.708;23.186;2023-08-06T02:11:33;93786.31;;;21.08;84.73
8703;BME280;9002;42.708;23.186;2023-08-06T02:14:00;93771.97;;;20.90;85.67
8703;BME280;9002;42.708;23.186;2023-08-06T02:16:27;93797.00;;;21.27;83.97
8703;BME280;9002;42.708;23.186;2023-08-06T02:18:54;93799.59;;;20.88;85.33
8703;BME280;9002;42.708;23.186;2023-08-06T02:21:21;93776.75;;;20.83;85.26
8703;BME280;9002;42.708;23.186;2023-08-06T02:23:48;93823.81;;;20.85;87.64
8703;BME280;9002;42.708;23.186;2023-08-06T02:26:14;93803.00;;;20.39;89.88
8703;BME280;9002;42.708;23.186;2023-08-06T02:29:02;93825.34;;;20.31;100.00
8703;BME280;9002;42.708;23.186;2023-08-06T02:31:29;93804.66;;;20.20;100.00
8703;BME280;9002;42.708;23.186;2023-08-06T02:33:56;93806.94;;;20.47;100.00
8703;BME280;9002;42.708;23.186;2023-08-06T02:36:24;93745.84;;;20.16;100.00
8703;BME280;9002;42.708;23.186;2023-08-06T02:38:54;93823.97;;;20.59;100.00
8703;BME280;9002;42.708;23.186;2023-08-06T02:41:21;93838.47;;;20.41;100.00
8703;BME280;9002;42.708;23.186;2023-08-06T02:43:48;93844.00;;;20.40;100.00
8703;BME280;9002;42.708;23.186;2023-08-06T02:46:16;93801.31;;;19.89;100.00
8703;BME280;9002;42.708;23.186;2023-08-06T02:48:43;93830.94;;;20.15;100.00
8703;BME280;9002;42.708;23.186;2023-08-06T02:51:10;93831.38;;;20.32;100.00
8703;BME280;9002;42.708;23.186;2023-08-06T02:53:37;93788.03;;;20.39;100.00
8703;BME280;9002;42.708;23.186;2023-08-06T02:56:04;93774.91;;;20.84;100.00
8703;BME280;9002;42.708;23.186;2023-08-06T02:58:31;93754.53;;;20.65;99.26
8703;BME280;9002;42.708;23.186;2023-08-06T03:01:01;93761.72;;;20.89;99.46
8703;BME280;9002;42.708;23.186;2023-08-06T03:03:31;93737.13;;;21.08;95.06
8703;BME280;9002;42.708;23.186;2023-08-06T03:05:58;93800.56;;;21.02;95.52
8703;BME280;9002;42.708;23.186;2023-08-06T03:08:25;93749.06;;;20.96;97.68
8703;BME280;9002;42.708;23.186;2023-08-06T03:10:52;93705.25;;;21.15;95.55
8703;BME280;9002;42.708;23.186;2023-08-06T03:13:19;93730.91;;;21.33;94.76
8703;BME280;9002;42.708;23.186;2023-08-06T03:15:53;93773.53;;;20.91;94.58
8703;BME280;9002;42.708;23.186;2023-08-06T03:18:20;93761.41;;;20.56;94.92
8703;BME280;9002;42.708;23.186;2023-08-06T03:20:49;93768.72;;;20.69;95.03
8703;BME280;9002;42.708;23.186;2023-08-06T03:23:16;93744.88;;;20.90;96.04
8703;BME280;9002;42.708;23.186;2023-08-06T03:28:13;93761.00;;;21.22;92.21
8703;BME280;9002;42.708;23.186;2023-08-06T03:30:40;93776.38;;;21.00;90.79
8703;BME280;9002;42.708;23.186;2023-08-06T03:33:07;93796.78;;;20.79;93.10
8703;BME280;9002;42.708;23.186;2023-08-06T03:35:33;93815.22;;;20.74;95.58
8703;BME280;9002;42.708;23.186;2023-08-06T03:38:01;93822.72;;;20.91;93.14
8703;BME280;9002;42.708;23.186;2023-08-06T03:40:28;93820.81;;;21.01;93.67
8703;BME280;9002;42.708;23.186;2023-08-06T03:42:55;93808.88;;;21.24;95.65
8703;BME280;9002;42.708;23.186;2023-08-06T03:45:22;93792.56;;;21.22;92.86
8703;BME280;9002;42.708;23.186;2023-08-06T03:47:48;93808.22;;;21.37;91.15
8703;BME280;9002;42.708;23.186;2023-08-06T03:50:15;93806.16;;;21.34;90.40
8703;BME280;9002;42.708;23.186;2023-08-06T03:52:42;93801.56;;;21.45;90.77
8703;BME280;9002;42.708;23.186;2023-08-06T03:55:10;93815.91;;;21.63;90.82
8703;BME280;9002;42.708;23.186;2023-08-06T03:57:37;93818.09;;;21.51;91.26
8703;BME280;9002;42.708;23.186;2023-08-06T04:00:04;93816.38;;;21.70;90.74
8703;BME280;9002;42.708;23.186;2023-08-06T04:02:31;93818.31;;;21.59;89.58
8703;BME280;9002;42.708;23.186;2023-08-06T04:04:58;93804.34;;;21.59;91.23
8703;BME280;9002;42.708;23.186;2023-08-06T04:07:25;93827.25;;;21.58;88.86
8703;BME280;9002;42.708;23.186;2023-08-06T04:09:53;93832.53;;;21.24;89.38
8703;BME280;9002;42.708;23.186;2023-08-06T04:12:22;93827.03;;;21.16;89.45
8703;BME280;9002;42.708;23.186;2023-08-06T04:14:50;93828.88;;;21.15;88.69
8703;BME280;9002;42.708;23.186;2023-08-06T04:17:16;93842.50;;;21.32;91.43
8703;BME280;9002;42.708;23.186;2023-08-06T04:19:46;93834.72;;;21.46;89.37
8703;BME280;9002;42.708;23.186;2023-08-06T04:22:13;93830.63;;;21.64;89.22
8703;BME280;9002;42.708;23.186;2023-08-06T04:24:40;93828.47;;;21.71;89.47
8703;BME280;9002;42.708;23.186;2023-08-06T04:27:06;93794.25;;;21.71;87.27
8703;BME280;9002;42.708;23.186;2023-08-06T04:32:12;93811.22;;;21.21;89.32
8703;BME280;9002;42.708;23.186;2023-08-06T04:34:38;93817.41;;;21.40;87.55
8703;BME280;9002;42.708;23.186;2023-08-06T04:37:05;93804.47;;;21.43;86.60
8703;BME280;9002;42.708;23.186;2023-08-06T04:39:32;93797.59;;;21.48;88.30
8703;BME280;9002;42.708;23.186;2023-08-06T04:41:59;93797.47;;;21.34;87.60
8703;BME280;9002;42.708;23.186;2023-08-06T04:44:26;93766.44;;;21.31;87.96
8703;BME280;9002;42.708;23.186;2023-08-06T04:46:53;93769.31;;;21.34;89.30
8703;BME280;9002;42.708;23.186;2023-08-06T04:49:21;93779.69;;;21.50;87.22
8703;BME280;9002;42.708;23.186;2023-08-06T04:51:48;93764.84;;;21.35;87.75
8703;BME280;9002;42.708;23.186;2023-08-06T04:54:15;93754.94;;;21.51;88.27
8703;BME280;9002;42.708;23.186;2023-08-06T04:56:41;93748.97;;;21.40;88.55
8703;BME280;9002;42.708;23.186;2023-08-06T04:59:08;93736.47;;;21.27;89.22
8703;BME280;9002;42.708;23.186;2023-08-06T05:04:02;93743.03;;;21.29;89.07
8703;BME280;9002;42.708;23.186;2023-08-06T05:06:30;93747.19;;;21.35;89.56
8703;BME280;9002;42.708;23.186;2023-08-06T05:08:57;93752.91;;;21.71;85.89
8703;BME280;9002;42.708;23.186;2023-08-06T05:11:24;93753.63;;;21.77;85.46
8703;BME280;9002;42.708;23.186;2023-08-06T05:13:50;93756.22;;;21.82;84.71
8703;BME280;9002;42.708;23.186;2023-08-06T05:16:17;93753.38;;;21.50;87.43
8703;BME280;9002;42.708;23.186;2023-08-06T05:18:44;93754.34;;;21.30;89.02
8703;BME280;9002;42.708;23.186;2023-08-06T05:21:11;93758.06;;;21.53;88.83
8703;BME280;9002;42.708;23.186;2023-08-06T05:23:41;93764.59;;;21.60;87.45
8703;BME280;9002;42.708;23.186;2023-08-06T05:26:07;93774.16;;;21.51;88.08
8703;BME280;9002;42.708;23.186;2023-08-06T05:28:34;93761.75;;;21.52;87.81
8703;BME280;9002;42.708;23.186;2023-08-06T05:31:03;93739.91;;;21.27;88.75
8703;BME280;9002;42.708;23.186;2023-08-06T05:33:30;93768.97;;;21.70;88.69
8703;BME280;9002;42.708;23.186;2023-08-06T05:35:57;93765.97;;;22.05;87.45
8703;BME280;9002;42.708;23.186;2023-08-06T05:38:23;93768.28;;;22.12;85.99
8703;BME280;9002;42.708;23.186;2023-08-06T05:40:52;93754.75;;;22.19;86.44
8703;BME280;9002;42.708;23.186;2023-08-06T05:43:18;93750.41;;;22.09;86.63
8703;BME280;9002;42.708;23.186;2023-08-06T05:45:45;93751.75;;;22.06;84.01
8703;BME280;9002;42.708;23.186;2023-08-06T05:48:12;93749.16;;;22.01;81.79
8703;BME280;9002;42.708;23.186;2023-08-06T05:50:39;93732.22;;;21.84;81.29
8703;BME280;9002;42.708;23.186;2023-08-06T05:53:06;93756.38;;;21.67;82.02
8703;BME280;9002;42.708;23.186;2023-08-06T05:55:33;93755.75;;;21.75;81.73
8703;BME280;9002;42.708;23.186;2023-08-06T05:58:02;93777.97;;;21.93;80.63
8703;BME280;9002;42.708;23.186;2023-08-06T06:00:28;93748.69;;;21.70;81.98
8703;BME280;9002;42.708;23.186;2023-08-06T06:02:55;93752.41;;;21.93;79.97
8703;BME280;9002;42.708;23.186;2023-08-06T06:05:22;93793.09;;;22.06;78.53
8703;BME280;9002;42.708;23.186;2023-08-06T06:07:49;93791.41;;;21.91;78.99
8703;BME280;9002;42.708;23.186;2023-08-06T06:10:16;93757.88;;;21.97;78.95
8703;BME280;9002;42.708;23.186;2023-08-06T06:12:42;93758.22;;;21.90;79.67
8703;BME280;9002;42.708;23.186;2023-08-06T06:15:11;93766.75;;;21.82;79.84
8703;BME280;9002;42.708;23.186;2023-08-06T06:17:38;93759.34;;;21.84;80.39
8703;BME280;9002;42.708;23.186;2023-08-06T06:20:06;93778.31;;;22.10;79.95
8703;BME280;9002;42.708;23.186;2023-08-06T06:22:33;93769.09;;;22.31;76.87
8703;BME280;9002;42.708;23.186;2023-08-06T06:25:00;93808.81;;;22.59;74.03
8703;BME280;9002;42.708;23.186;2023-08-06T06:27:27;93793.66;;;22.69;73.39
8703;BME280;9002;42.708;23.186;2023-08-06T06:29:55;93816.88;;;22.91;74.15
8703;BME280;9002;42.708;23.186;2023-08-06T06:32:23;93797.28;;;22.73;73.03
8703;BME280;9002;42.708;23.186;2023-08-06T06:34:50;93815.16;;;22.82;73.87
8703;BME280;9002;42.708;23.186;2023-08-06T06:37:16;93781.16;;;22.37;76.23
8703;BME280;9002;42.708;23.186;2023-08-06T06:39:43;93790.66;;;22.57;75.19
8703;BME280;9002;42.708;23.186;2023-08-06T06:42:10;93810.03;;;22.66;74.85
8703;BME280;9002;42.708;23.186;2023-08-06T06:44:37;93814.09;;;22.59;75.26
8703;BME280;9002;42.708;23.186;2023-08-06T06:47:04;93822.72;;;22.46;76.51
8703;BME280;9002;42.708;23.186;2023-08-06T06:49:32;93847.97;;;22.52;77.53
8703;BME280;9002;42.708;23.186;2023-08-06T06:51:59;93815.72;;;22.36;77.24
8703;BME280;9002;42.708;23.186;2023-08-06T06:54:26;93816.00;;;22.53;76.14
8703;BME280;9002;42.708;23.186;2023-08-06T06:56:53;93845.28;;;22.76;74.95
8703;BME280;9002;42.708;23.186;2023-08-06T06:59:20;93840.25;;;22.79;74.62
8703;BME280;9002;42.708;23.186;2023-08-06T07:01:46;93860.25;;;22.56;75.25
8703;BME280;9002;42.708;23.186;2023-08-06T07:04:13;93867.41;;;22.80;74.55
8703;BME280;9002;42.708;23.186;2023-08-06T07:06:41;93873.50;;;22.99;73.50
8703;BME280;9002;42.708;23.186;2023-08-06T07:09:08;93814.31;;;22.62;73.25
8703;BME280;9002;42.708;23.186;2023-08-06T07:11:35;93865.78;;;22.84;72.54
8703;BME280;9002;42.708;23.186;2023-08-06T07:14:02;93890.69;;;22.96;71.18
8703;BME280;9002;42.708;23.186;2023-08-06T07:16:29;93870.03;;;22.80;69.76
8703;BME280;9002;42.708;23.186;2023-08-06T07:18:55;93884.03;;;22.75;69.05
8703;BME280;9002;42.708;23.186;2023-08-06T07:21:22;93885.16;;;22.69;70.04
8703;BME280;9002;42.708;23.186;2023-08-06T07:23:50;93889.38;;;22.70;69.45
8703;BME280;9002;42.708;23.186;2023-08-06T07:26:17;93880.81;;;22.83;69.67
8703;BME280;9002;42.708;23.186;2023-08-06T07:28:44;93863.78;;;22.94;68.44
8703;BME280;9002;42.708;23.186;2023-08-06T07:31:11;93878.56;;;22.95;68.11
8703;BME280;9002;42.708;23.186;2023-08-06T07:33:38;93893.25;;;22.78;67.08
8703;BME280;9002;42.708;23.186;2023-08-06T07:36:10;93886.06;;;22.59;67.81
8703;BME280;9002;42.708;23.186;2023-08-06T07:38:37;93873.50;;;22.75;67.49
8703;BME280;9002;42.708;23.186;2023-08-06T07:41:05;93883.41;;;22.88;67.25
8703;BME280;9002;42.708;23.186;2023-08-06T07:43:32;93869.56;;;22.72;67.47
8703;BME280;9002;42.708;23.186;2023-08-06T07:45:59;93869.78;;;22.76;67.32
8703;BME280;9002;42.708;23.186;2023-08-06T07:48:26;93871.91;;;22.79;67.46
8703;BME280;9002;42.708;23.186;2023-08-06T07:50:53;93853.59;;;22.64;66.06
8703;BME280;9002;42.708;23.186;2023-08-06T07:53:20;93864.91;;;22.64;66.26
8703;BME280;9002;42.708;23.186;2023-08-06T07:55:49;93840.91;;;22.90;66.57
8703;BME280;9002;42.708;23.186;2023-08-06T07:58:18;93870.44;;;23.11;65.70
8703;BME280;9002;42.708;23.186;2023-08-06T08:00:44;93860.44;;;23.26;65.64
8703;BME280;9002;42.708;23.186;2023-08-06T08:03:11;93867.41;;;23.36;66.40
8703;BME280;9002;42.708;23.186;2023-08-06T08:05:38;93858.56;;;23.46;66.65
8703;BME280;9002;42.708;23.186;2023-08-06T08:08:08;93856.94;;;23.31;65.37
8703;BME280;9002;42.708;23.186;2023-08-06T08:10:35;93842.09;;;23.16;65.42
8703;BME280;9002;42.708;23.186;2023-08-06T08:13:04;93848.09;;;23.59;65.66
8703;BME280;9002;42.708;23.186;2023-08-06T08:15:32;93862.88;;;23.60;64.91
8703;BME280;9002;42.708;23.186;2023-08-06T08:17:59;93866.00;;;23.44;65.06
8703;BME280;9002;42.708;23.186;2023-08-06T08:20:26;93864.16;;;23.63;66.16
8703;BME280;9002;42.708;23.186;2023-08-06T08:22:57;93859.00;;;23.85;64.99
8703;BME280;9002;42.708;23.186;2023-08-06T08:25:24;93860.44;;;23.78;64.33
8703;BME280;9002;42.708;23.186;2023-08-06T08:27:52;93863.00;;;23.83;64.69
8703;BME280;9002;42.708;23.186;2023-08-06T08:30:19;93868.47;;;23.73;64.36
8703;BME280;9002;42.708;23.186;2023-08-06T08:32:47;93847.50;;;23.44;64.56
8703;BME280;9002;42.708;23.186;2023-08-06T08:35:14;93857.94;;;23.54;65.27
8703;BME280;9002;42.708;23.186;2023-08-06T08:37:41;93862.84;;;23.93;65.08
8703;BME280;9002;42.708;23.186;2023-08-06T08:40:09;93850.50;;;23.88;63.85
8703;BME280;9002;42.708;23.186;2023-08-06T08:42:36;93858.66;;;24.06;62.34
8703;BME280;9002;42.708;23.186;2023-08-06T08:45:04;93834.25;;;23.81;62.69
8703;BME280;9002;42.708;23.186;2023-08-06T08:47:33;93855.63;;;23.98;62.92
8703;BME280;9002;42.708;23.186;2023-08-06T08:50:01;93835.16;;;23.90;63.30
8703;BME280;9002;42.708;23.186;2023-08-06T08:52:30;93859.06;;;24.13;63.61
8703;BME280;9002;42.708;23.186;2023-08-06T08:54:58;93846.38;;;24.28;62.92
8703;BME280;9002;42.708;23.186;2023-08-06T09:12:59;93835.41;;;24.76;62.71
8703;BME280;9002;42.708;23.186;2023-08-06T09:15:27;93824.72;;;24.67;61.73
8703;BME280;9002;42.708;23.186;2023-08-06T09:17:54;93823.38;;;24.92;61.52
8703;BME280;9002;42.708;23.186;2023-08-06T09:20:21;93817.56;;;24.68;61.47
8703;BME280;9002;42.708;23.186;2023-08-06T09:22:48;93817.13;;;25.02;60.68
8703;BME280;9002;42.708;23.186;2023-08-06T09:25:20;93812.41;;;25.13;60.01
8703;BME280;9002;42.708;23.186;2023-08-06T09:27:49;93807.91;;;24.99;59.56
8703;BME280;9002;42.708;23.186;2023-08-06T09:30:29;93815.94;;;24.94;59.38
8703;BME280;9002;42.708;23.186;2023-08-06T09:32:57;93819.94;;;25.19;58.93
8703;BME280;9002;42.708;23.186;2023-08-06T09:35:23;93808.09;;;25.03;56.90
8703;BME280;9002;42.708;23.186;2023-08-06T09:37:50;93796.88;;;25.20;55.93
8703;BME280;9002;42.708;23.186;2023-08-06T09:40:35;93796.25;;;25.45;53.68
8703;BME280;9002;42.708;23.186;2023-08-06T09:43:02;93781.28;;;25.18;52.62
8703;BME280;9002;42.708;23.186;2023-08-06T09:45:33;93804.81;;;25.42;53.13
8703;BME280;9002;42.708;23.186;2023-08-06T09:48:00;93774.97;;;25.28;53.89
8703;BME280;9002;42.708;23.186;2023-08-06T09:50:29;93801.34;;;25.78;53.75
8703;BME280;9002;42.708;23.186;2023-08-06T09:52:57;93793.19;;;26.05;51.67
8703;BME280;9002;42.708;23.186;2023-08-06T09:55:24;93787.66;;;25.84;50.74
8703;BME280;9002;42.708;23.186;2023-08-06T09:57:52;93813.78;;;25.55;50.98
8703;BME280;9002;42.708;23.186;2023-08-06T10:00:19;93809.78;;;25.35;51.90
8703;BME280;9002;42.708;23.186;2023-08-06T10:02:48;93799.03;;;25.18;52.52
8703;BME280;9002;42.708;23.186;2023-08-06T10:05:17;93799.63;;;25.15;52.59
8703;BME280;9002;42.708;23.186;2023-08-06T10:07:45;93807.84;;;25.27;52.65
8703;BME280;9002;42.708;23.186;2023-08-06T10:10:12;93814.50;;;25.47;51.64
8703;BME280;9002;42.708;23.186;2023-08-06T10:12:40;93821.84;;;25.50;51.95
8703;BME280;9002;42.708;23.186;2023-08-06T10:15:13;93813.22;;;25.44;52.05
8703;BME280;9002;42.708;23.186;2023-08-06T10:17:42;93827.72;;;25.38;51.63
8703;BME280;9002;42.708;23.186;2023-08-06T10:20:12;93812.22;;;25.54;50.70
8703;BME280;9002;42.708;23.186;2023-08-06T10:22:42;93794.50;;;25.63;50.18
8703;BME280;9002;42.708;23.186;2023-08-06T10:25:09;93802.22;;;25.51;52.10
8703;BME280;9002;42.708;23.186;2023-08-06T10:27:41;93807.78;;;25.41;53.06
8703;BME280;9002;42.708;23.186;2023-08-06T10:30:26;93815.03;;;25.57;54.22
8703;BME280;9002;42.708;23.186;2023-08-06T10:32:54;93812.00;;;25.86;53.00
8703;BME280;9002;42.708;23.186;2023-08-06T10:35:31;93801.09;;;25.65;53.42
8703;BME280;9002;42.708;23.186;2023-08-06T10:37:59;93817.53;;;25.76;51.54
8703;BME280;9002;42.708;23.186;2023-08-06T10:40:29;93829.59;;;25.82;51.91
8703;BME280;9002;42.708;23.186;2023-08-06T10:42:58;93842.94;;;25.32;53.72
8703;BME280;9002;42.708;23.186;2023-08-06T10:45:25;93823.25;;;25.25;54.97
8703;BME280;9002;42.708;23.186;2023-08-06T10:47:54;93813.19;;;25.13;54.86
8703;BME280;9002;42.708;23.186;2023-08-06T10:50:22;93850.16;;;25.41;54.01
8703;BME280;9002;42.708;23.186;2023-08-06T10:52:51;93842.91;;;25.55;53.56
8703;BME280;9002;42.708;23.186;2023-08-06T10:55:25;93841.88;;;25.42;52.97
8703;BME280;9002;42.708;23.186;2023-08-06T10:57:52;93860.56;;;25.37;53.64
8703;BME280;9002;42.708;23.186;2023-08-06T11:00:20;93854.66;;;25.62;53.13
8703;BME280;9002;42.708;23.186;2023-08-06T11:02:48;93853.81;;;25.53;53.60
8703;BME280;9002;42.708;23.186;2023-08-06T11:05:15;93837.75;;;25.50;53.56
8703;BME280;9002;42.708;23.186;2023-08-06T11:07:42;93864.41;;;25.53;53.25
8703;BME280;9002;42.708;23.186;2023-08-06T11:10:11;93865.00;;;25.64;52.53
8703;BME280;9002;42.708;23.186;2023-08-06T11:12:38;93871.94;;;25.38;53.32
8703;BME280;9002;42.708;23.186;2023-08-06T11:15:06;93861.84;;;24.76;55.68
8703;BME280;9002;42.708;23.186;2023-08-06T11:17:34;93873.63;;;24.84;56.24
8703;BME280;9002;42.708;23.186;2023-08-06T11:20:02;93884.94;;;24.84;56.79
8703;BME280;9002;42.708;23.186;2023-08-06T11:22:29;93896.75;;;24.78;59.15
8703;BME280;9002;42.708;23.186;2023-08-06T11:24:56;93889.97;;;24.58;60.67
8703;BME280;9002;42.708;23.186;2023-08-06T11:27:26;93899.44;;;24.32;60.19
8703;BME280;9002;42.708;23.186;2023-08-06T11:29:53;93890.38;;;23.73;62.76
8703;BME280;9002;42.708;23.186;2023-08-06T11:32:20;93878.03;;;23.68;64.43
8703;BME280;9002;42.708;23.186;2023-08-06T11:34:47;93880.88;;;24.04;58.77
8703;BME280;9002;42.708;23.186;2023-08-06T11:37:13;93820.66;;;23.88;57.80
8703;BME280;9002;42.708;23.186;2023-08-06T11:39:46;93873.31;;;24.72;58.20
8703;BME280;9002;42.708;23.186;2023-08-06T11:42:13;93874.13;;;25.36;53.64
8703;BME280;9002;42.708;23.186;2023-08-06T11:44:41;93864.84;;;25.47;52.16
8703;BME280;9002;42.708;23.186;2023-08-06T11:47:13;93859.81;;;25.81;50.62
8703;BME280;9002;42.708;23.186;2023-08-06T11:49:41;93809.09;;;25.52;51.33
8703;BME280;9002;42.708;23.186;2023-08-06T11:52:14;93847.25;;;26.26;50.32
8703;BME280;9002;42.708;23.186;2023-08-06T11:54:44;93850.53;;;26.54;49.68
8703;BME280;9002;42.708;23.186;2023-08-06T11:57:11;93848.72;;;26.89;48.41
8703;BME280;9002;42.708;23.186;2023-08-06T11:59:38;93807.94;;;26.68;49.10
8703;BME280;9002;42.708;23.186;2023-08-06T12:02:09;93818.09;;;26.75;49.11
8703;BME280;9002;42.708;23.186;2023-08-06T12:04:58;93839.47;;;26.70;48.50
8703;BME280;9002;42.708;23.186;2023-08-06T12:07:27;93840.50;;;27.00;49.11
8703;BME280;9002;42.708;23.186;2023-08-06T12:09:53;93839.41;;;27.35;48.21
8703;BME280;9002;42.708;23.186;2023-08-06T12:12:20;93840.38;;;27.48;47.52
8703;BME280;9002;42.708;23.186;2023-08-06T12:14:47;93808.78;;;27.38;45.77
8703;BME280;9002;42.708;23.186;2023-08-06T12:17:15;93795.34;;;27.43;45.21
8703;BME280;9002;42.708;23.186;2023-08-06T12:19:44;93829.88;;;27.34;45.84
8703;BME280;9002;42.708;23.186;2023-08-06T12:22:10;93832.41;;;27.13;46.68
8703;BME280;9002;42.708;23.186;2023-08-06T12:24:38;93831.59;;;27.04;47.33
8703;BME280;9002;42.708;23.186;2023-08-06T12:27:05;93837.38;;;27.32;45.97
8703;BME280;9002;42.708;23.186;2023-08-06T12:29:32;93835.97;;;27.00;46.99
8703;BME280;9002;42.708;23.186;2023-08-06T12:31:59;93813.72;;;26.79;47.34
8703;BME280;9002;42.708;23.186;2023-08-06T12:34:27;93832.94;;;26.84;47.88
8703;BME280;9002;42.708;23.186;2023-08-06T12:36:53;93829.53;;;26.92;47.78
8703;BME280;9002;42.708;23.186;2023-08-06T12:39:20;93839.50;;;26.87;47.88
8703;BME280;9002;42.708;23.186;2023-08-06T12:41:47;93834.00;;;26.75;47.26
8703;BME280;9002;42.708;23.186;2023-08-06T12:44:14;93802.91;;;26.49;47.28
8703;BME280;9002;42.708;23.186;2023-08-06T12:46:41;93813.97;;;26.43;47.40
8703;BME280;9002;42.708;23.186;2023-08-06T12:49:07;93813.38;;;26.23;48.55
8703;BME280;9002;42.708;23.186;2023-08-06T12:51:35;93826.78;;;26.49;47.95
8703;BME280;9002;42.708;23.186;2023-08-06T12:54:02;93823.69;;;26.56;48.35
8703;BME280;9002;42.708;23.186;2023-08-06T12:56:29;93810.56;;;26.51;47.85
8703;BME280;9002;42.708;23.186;2023-08-06T12:58:56;93826.81;;;26.67;48.28
8703;BME280;9002;42.708;23.186;2023-08-06T13:01:22;93820.25;;;26.55;48.22
8703;BME280;9002;42.708;23.186;2023-08-06T13:03:49;93826.16;;;26.61;49.01
8703;BME280;9002;42.708;23.186;2023-08-06T13:06:16;93800.16;;;26.89;47.44
8703;BME280;9002;42.708;23.186;2023-08-06T13:08:44;93816.16;;;27.06;47.40
8703;BME280;9002;42.708;23.186;2023-08-06T13:11:11;93828.66;;;27.14;47.59
8703;BME280;9002;42.708;23.186;2023-08-06T13:13:37;93829.25;;;27.20;46.66
8703;BME280;9002;42.708;23.186;2023-08-06T13:16:04;93822.53;;;27.22;46.80
8703;BME280;9002;42.708;23.186;2023-08-06T13:18:31;93832.09;;;27.15;47.45
8703;BME280;9002;42.708;23.186;2023-08-06T13:20:58;93831.88;;;26.94;47.22
8703;BME280;9002;42.708;23.186;2023-08-06T13:23:25;93818.75;;;26.89;47.73
8703;BME280;9002;42.708;23.186;2023-08-06T13:25:53;93834.84;;;26.92;46.68
8703;BME280;9002;42.708;23.186;2023-08-06T13:28:20;93840.91;;;26.84;47.39
8703;BME280;9002;42.708;23.186;2023-08-06T13:30:47;93843.34;;;26.63;48.19
8703;BME280;9002;42.708;23.186;2023-08-06T13:33:14;93850.16;;;26.39;49.09
8703;BME280;9002;42.708;23.186;2023-08-06T13:35:40;93794.19;;;26.18;47.93